createdAt,value
2018-08-16T00:00:15.597Z,15.80
2018-08-16T00:02:44.793Z,15.70
2018-08-16T00:05:13.589Z,15.70
2018-08-16T00:07:42.293Z,15.70
2018-08-16T00:10:14.055Z,15.60
2018-08-16T00:12:44.366Z,15.70
2018-08-16T00:15:13.720Z,15.60
2018-08-16T00:17:42.289Z,15.60
2018-08-16T00:20:11.926Z,15.60
2018-08-16T00:22:40.417Z,15.50
2018-08-16T00:25:09.720Z,15.50
2018-08-16T00:27:38.217Z,15.40
2018-08-16T00:30:09.057Z,15.40
2018-08-16T00:32:37.553Z,15.40
2018-08-16T00:35:06.613Z,15.40
2018-08-16T00:37:35.090Z,15.30
2018-08-16T00:40:04.117Z,15.30
2018-08-16T00:42:35.278Z,15.30
2018-08-16T00:45:05.470Z,15.30
2018-08-16T00:47:34.773Z,15.30
2018-08-16T00:50:04.368Z,15.20
2018-08-16T00:52:32.868Z,15.20
2018-08-16T00:55:01.738Z,15.20
2018-08-16T00:57:30.157Z,15.10
2018-08-16T00:59:58.613Z,15.10
2018-08-16T01:02:27.081Z,15.00
2018-08-16T01:04:55.535Z,15.00
2018-08-16T01:07:23.949Z,15.00
2018-08-16T01:09:52.388Z,15.00
2018-08-16T01:12:20.868Z,15.00
2018-08-16T01:14:49.381Z,14.90
2018-08-16T01:17:17.828Z,14.80
2018-08-16T01:19:46.353Z,14.80
2018-08-16T01:22:14.870Z,14.80
2018-08-16T01:24:43.365Z,14.70
2018-08-16T01:27:11.824Z,14.70
2018-08-16T01:29:40.252Z,14.70
2018-08-16T01:32:08.917Z,14.70
2018-08-16T01:34:37.424Z,14.70
2018-08-16T01:37:05.901Z,14.70
2018-08-16T01:39:34.389Z,14.80
2018-08-16T01:42:03.310Z,14.80
2018-08-16T01:44:31.729Z,14.80
2018-08-16T01:47:00.221Z,14.70
2018-08-16T01:49:31.142Z,14.70
2018-08-16T01:51:59.910Z,14.80
2018-08-16T01:54:29.572Z,14.70
2018-08-16T01:56:58.933Z,14.70
2018-08-16T01:59:27.545Z,14.80
2018-08-16T02:01:56.048Z,14.80
2018-08-16T02:04:24.517Z,14.70
2018-08-16T02:06:53.378Z,14.60
2018-08-16T02:09:22.924Z,14.60
2018-08-16T02:11:51.756Z,14.60
2018-08-16T02:14:20.759Z,14.60
2018-08-16T02:16:49.780Z,14.60
2018-08-16T02:19:18.249Z,14.60
2018-08-16T02:21:46.811Z,14.60
2018-08-16T02:24:15.274Z,14.60
2018-08-16T02:26:43.765Z,14.60
2018-08-16T02:29:12.277Z,14.50
2018-08-16T02:31:40.782Z,14.50
2018-08-16T02:34:09.263Z,14.50
2018-08-16T02:36:37.690Z,14.40
2018-08-16T02:39:08.837Z,14.40
2018-08-16T02:41:38.021Z,14.50
2018-08-16T02:44:06.929Z,14.50
2018-08-16T02:46:35.392Z,14.40
2018-08-16T02:49:03.969Z,14.40
2018-08-16T02:51:32.400Z,14.30
2018-08-16T02:54:00.863Z,14.40
2018-08-16T02:56:29.370Z,14.40
2018-08-16T02:58:57.917Z,14.40
2018-08-16T03:01:26.361Z,14.40
2018-08-16T03:03:54.829Z,14.50
2018-08-16T03:06:23.282Z,14.40
2018-08-16T03:08:51.731Z,14.40
2018-08-16T03:11:20.179Z,14.50
2018-08-16T03:13:48.668Z,14.40
2018-08-16T03:16:17.136Z,14.40
2018-08-16T03:18:45.602Z,14.40
2018-08-16T03:21:14.133Z,14.40
2018-08-16T03:23:42.564Z,14.30
2018-08-16T03:26:11.038Z,14.30
2018-08-16T03:28:39.489Z,14.30
2018-08-16T03:31:07.973Z,14.30
2018-08-16T03:33:36.432Z,14.20
2018-08-16T03:36:04.893Z,14.30
2018-08-16T03:38:33.400Z,14.20
2018-08-16T03:41:01.833Z,14.20
2018-08-16T03:43:30.273Z,14.20
2018-08-16T03:45:59.360Z,14.20
2018-08-16T03:48:27.814Z,14.30
2018-08-16T03:50:56.246Z,14.20
2018-08-16T03:53:24.689Z,14.10
2018-08-16T03:55:53.141Z,14.10
2018-08-16T03:58:21.660Z,14.00
2018-08-16T04:00:50.042Z,14.10
2018-08-16T04:03:18.488Z,14.20
2018-08-16T04:05:46.928Z,14.20
2018-08-16T04:08:15.356Z,14.20
2018-08-16T04:10:43.816Z,14.20
2018-08-16T04:13:12.248Z,14.10
2018-08-16T04:15:40.662Z,14.00
2018-08-16T04:18:09.180Z,14.00
2018-08-16T04:20:37.660Z,14.10
2018-08-16T04:23:06.144Z,14.10
2018-08-16T04:25:34.679Z,14.00
2018-08-16T04:28:03.468Z,14.10
2018-08-16T04:30:31.902Z,14.10
2018-08-16T04:33:00.385Z,14.10
2018-08-16T04:35:28.950Z,14.10
2018-08-16T04:37:57.341Z,14.10
2018-08-16T04:40:25.799Z,14.10
2018-08-16T04:42:54.269Z,14.10
2018-08-16T04:45:22.749Z,14.10
2018-08-16T04:47:51.184Z,14.20
2018-08-16T04:50:19.661Z,14.30
2018-08-16T04:52:48.109Z,14.30
2018-08-16T04:55:16.524Z,14.30
2018-08-16T04:57:44.988Z,14.30
2018-08-16T05:00:14.100Z,14.40
2018-08-16T05:02:42.552Z,14.60
2018-08-16T05:05:10.989Z,14.70
2018-08-16T05:07:39.472Z,14.80
2018-08-16T05:10:09.564Z,15.00
2018-08-16T05:12:38.017Z,15.10
2018-08-16T05:15:09.113Z,15.30
2018-08-16T05:17:37.868Z,15.40
2018-08-16T05:20:09.156Z,15.50
2018-08-16T05:22:37.656Z,15.60
2018-08-16T05:25:06.268Z,15.60
2018-08-16T05:27:34.972Z,15.70
2018-08-16T05:30:03.668Z,15.70
2018-08-16T05:32:32.121Z,15.70
2018-08-16T05:35:00.596Z,15.70
2018-08-16T05:37:29.078Z,15.80
2018-08-16T05:39:57.505Z,15.90
2018-08-16T05:42:26.012Z,15.90
2018-08-16T05:44:54.477Z,16.10
2018-08-16T05:47:22.975Z,16.20
2018-08-16T05:49:51.412Z,16.30
2018-08-16T05:52:19.866Z,16.40
2018-08-16T05:54:48.338Z,16.50
2018-08-16T05:57:16.801Z,16.60
2018-08-16T05:59:45.333Z,16.70
2018-08-16T06:02:14.249Z,16.80
2018-08-16T06:04:42.785Z,17.00
2018-08-16T06:07:11.206Z,17.20
2018-08-16T06:09:39.661Z,17.30
2018-08-16T06:12:08.105Z,17.40
2018-08-16T06:14:36.608Z,17.50
2018-08-16T06:17:05.125Z,18.50
2018-08-16T06:19:33.587Z,19.40
2018-08-16T06:22:02.248Z,20.30
2018-08-16T06:24:30.688Z,20.60
2018-08-16T06:26:59.282Z,21.10
2018-08-16T06:29:27.744Z,20.90
2018-08-16T06:31:56.231Z,20.80
2018-08-16T06:34:24.749Z,20.60
2018-08-16T06:36:53.198Z,21.10
2018-08-16T06:39:21.732Z,21.30
2018-08-16T06:41:50.809Z,21.70
2018-08-16T06:44:19.263Z,21.40
2018-08-16T06:46:47.749Z,21.70
2018-08-16T06:49:16.281Z,21.70
2018-08-16T06:51:44.768Z,22.00
2018-08-16T06:54:13.201Z,21.90
2018-08-16T06:56:41.653Z,22.20
2018-08-16T06:59:10.115Z,22.40
2018-08-16T07:01:38.600Z,22.30
2018-08-16T07:04:07.090Z,22.10
2018-08-16T07:06:35.564Z,22.30
2018-08-16T07:09:05.735Z,22.50
2018-08-16T07:11:34.219Z,22.60
2018-08-16T07:14:02.701Z,22.40
2018-08-16T07:16:31.202Z,22.80
2018-08-16T07:18:59.678Z,22.90
2018-08-16T07:21:28.149Z,22.90
2018-08-16T07:23:56.673Z,23.20
2018-08-16T07:26:25.133Z,23.30
2018-08-16T07:28:53.769Z,23.50
2018-08-16T07:31:22.232Z,23.30
2018-08-16T07:33:50.726Z,23.60
2018-08-16T07:36:19.182Z,23.20
2018-08-16T07:38:47.689Z,23.30
2018-08-16T07:41:16.165Z,23.00
2018-08-16T07:43:44.613Z,23.00
2018-08-16T07:46:13.180Z,22.70
2018-08-16T07:48:41.580Z,23.40
2018-08-16T07:51:10.092Z,23.80
2018-08-16T07:53:38.575Z,24.00
2018-08-16T07:56:07.093Z,23.90
2018-08-16T07:58:35.638Z,24.00
2018-08-16T08:01:04.045Z,23.40
2018-08-16T08:03:32.462Z,22.90
2018-08-16T08:06:00.929Z,23.30
2018-08-16T08:08:29.444Z,24.20
2018-08-16T08:10:57.876Z,23.80
2018-08-16T08:13:26.340Z,24.50
2018-08-16T08:15:54.833Z,23.80
2018-08-16T08:18:23.301Z,23.80
2018-08-16T08:20:51.897Z,23.70
2018-08-16T08:23:20.348Z,23.80
2018-08-16T08:25:48.865Z,23.60
2018-08-16T08:28:17.289Z,23.90
2018-08-16T08:30:45.818Z,23.70
2018-08-16T08:33:14.285Z,24.00
2018-08-16T08:35:43.228Z,24.30
2018-08-16T08:38:14.649Z,24.30
2018-08-16T08:40:43.092Z,24.00
2018-08-16T08:43:21.489Z,24.20
2018-08-16T08:45:49.904Z,24.70
2018-08-16T08:48:18.349Z,25.50
2018-08-16T08:50:46.784Z,25.20
2018-08-16T08:53:26.477Z,24.60
2018-08-16T08:56:06.045Z,24.80
2018-08-16T08:58:51.544Z,25.00
2018-08-16T09:01:20.007Z,24.90
2018-08-16T09:03:49.436Z,24.90
2018-08-16T09:06:18.019Z,24.20
2018-08-16T09:08:46.477Z,24.80
2018-08-16T09:11:26.313Z,25.50
2018-08-16T09:14:07.501Z,24.90
2018-08-16T09:16:37.244Z,24.80
2018-08-16T09:19:06.409Z,24.40
2018-08-16T09:21:35.495Z,24.60
2018-08-16T09:24:04.136Z,24.70
2018-08-16T09:26:37.918Z,25.10
2018-08-16T09:30:16.836Z,25.00
2018-08-16T09:32:56.599Z,25.50
2018-08-16T09:35:25.989Z,25.20
2018-08-16T09:37:54.506Z,25.40
2018-08-16T09:40:23.001Z,25.20
2018-08-16T09:42:51.493Z,25.50
2018-08-16T09:45:32.262Z,25.70
2018-08-16T09:48:11.820Z,25.50
2018-08-16T09:50:40.336Z,25.70
2018-08-16T09:53:08.823Z,25.50
2018-08-16T09:55:37.320Z,25.80
2018-08-16T09:58:05.869Z,26.50
2018-08-16T10:00:39.772Z,26.90
2018-08-16T10:03:08.878Z,26.50
2018-08-16T10:05:37.341Z,26.40
2018-08-16T10:08:05.776Z,26.20
2018-08-16T10:10:34.646Z,26.60
2018-08-16T10:13:03.109Z,26.90
2018-08-16T10:15:31.571Z,26.80
2018-08-16T10:18:00.049Z,27.00
2018-08-16T10:20:28.572Z,26.80
2018-08-16T10:22:57.040Z,27.10
2018-08-16T10:25:25.492Z,27.20
2018-08-16T10:27:53.940Z,27.30
2018-08-16T10:30:22.393Z,27.10
2018-08-16T10:32:51.204Z,26.90
2018-08-16T10:35:19.665Z,26.70
2018-08-16T10:37:48.125Z,25.70
2018-08-16T10:40:16.545Z,26.20
2018-08-16T10:42:45.033Z,27.30
2018-08-16T10:45:13.500Z,27.00
2018-08-16T10:47:41.963Z,27.70
2018-08-16T10:50:11.514Z,27.30
2018-08-16T10:52:39.988Z,27.00
2018-08-16T10:55:16.851Z,27.40
2018-08-16T10:57:45.362Z,27.60
2018-08-16T11:00:13.865Z,26.90
2018-08-16T11:02:42.335Z,27.30
2018-08-16T11:05:10.783Z,27.80
2018-08-16T11:07:39.336Z,27.80
2018-08-16T11:10:07.710Z,27.80
2018-08-16T11:12:36.149Z,28.00
2018-08-16T11:15:06.175Z,27.30
2018-08-16T11:17:34.613Z,27.60
2018-08-16T11:20:03.089Z,27.80
2018-08-16T11:22:31.551Z,26.70
2018-08-16T11:24:59.989Z,26.70
2018-08-16T11:27:28.439Z,28.00
2018-08-16T11:29:56.913Z,27.90
2018-08-16T11:32:25.356Z,28.10
2018-08-16T11:34:53.845Z,28.50
2018-08-16T11:37:22.256Z,28.40
2018-08-16T11:39:50.672Z,28.50
2018-08-16T11:42:19.141Z,28.40
2018-08-16T11:44:47.561Z,27.30
2018-08-16T11:47:16.008Z,28.00
2018-08-16T11:49:44.432Z,28.00
2018-08-16T11:52:12.879Z,28.60
2018-08-16T11:54:41.325Z,28.00
2018-08-16T11:57:09.777Z,28.30
2018-08-16T11:59:38.212Z,29.10
2018-08-16T12:02:06.747Z,28.90
2018-08-16T12:04:35.150Z,29.00
2018-08-16T12:07:03.660Z,28.50
2018-08-16T12:09:32.114Z,29.10
2018-08-16T12:12:00.648Z,29.40
2018-08-16T12:14:29.778Z,28.90
2018-08-16T12:16:58.229Z,29.40
2018-08-16T12:19:26.664Z,29.50
2018-08-16T12:21:55.159Z,29.00
2018-08-16T12:24:23.617Z,29.50
2018-08-16T12:26:52.083Z,29.70
2018-08-16T12:29:20.772Z,29.90
2018-08-16T12:31:49.229Z,29.90
2018-08-16T12:34:17.688Z,29.80
2018-08-16T12:36:46.129Z,30.20
2018-08-16T12:39:14.628Z,29.30
2018-08-16T12:41:43.089Z,29.70
2018-08-16T12:44:11.536Z,29.40
2018-08-16T12:46:40.018Z,29.30
2018-08-16T12:49:08.481Z,29.70
2018-08-16T12:51:36.949Z,30.10
2018-08-16T12:54:06.361Z,30.10
2018-08-16T12:56:34.805Z,30.70
2018-08-16T12:59:03.308Z,30.60
2018-08-16T13:01:31.773Z,30.70
2018-08-16T13:04:00.224Z,31.20
2018-08-16T13:06:28.660Z,31.20
2018-08-16T13:08:57.164Z,31.30
2018-08-16T13:11:25.569Z,30.50
2018-08-16T13:13:54.428Z,30.70
2018-08-16T13:16:23.561Z,31.10
2018-08-16T13:18:52.249Z,31.40
2018-08-16T13:21:20.691Z,31.40
2018-08-16T13:23:49.157Z,31.70
2018-08-16T13:26:17.621Z,32.00
2018-08-16T13:28:46.079Z,31.60
2018-08-16T13:31:14.581Z,32.10
2018-08-16T13:33:43.093Z,32.00
2018-08-16T13:36:11.533Z,32.30
2018-08-16T13:38:39.976Z,31.30
2018-08-16T13:41:08.410Z,30.70
2018-08-16T13:43:36.853Z,30.70
2018-08-16T13:46:05.537Z,31.80
2018-08-16T13:48:34.145Z,31.80
2018-08-16T13:51:02.556Z,31.40
2018-08-16T13:53:31.049Z,31.40
2018-08-16T13:55:59.693Z,31.80
2018-08-16T13:58:28.125Z,31.60
2018-08-16T14:00:56.721Z,32.00
2018-08-16T14:03:25.145Z,32.20
2018-08-16T14:05:53.572Z,31.50
2018-08-16T14:08:21.994Z,31.60
2018-08-16T14:10:51.566Z,31.40
2018-08-16T14:13:21.199Z,31.30
2018-08-16T14:15:49.747Z,29.50
2018-08-16T14:18:18.192Z,30.10
2018-08-16T14:20:46.638Z,30.80
2018-08-16T14:23:15.085Z,31.60
2018-08-16T14:25:43.512Z,31.40
2018-08-16T14:28:11.960Z,32.00
2018-08-16T14:30:40.437Z,31.50
2018-08-16T14:33:09.770Z,32.00
2018-08-16T14:35:38.193Z,32.30
2018-08-16T14:38:06.729Z,30.60
2018-08-16T14:40:35.161Z,30.30
2018-08-16T14:43:03.632Z,30.70
2018-08-16T14:45:32.045Z,29.60
2018-08-16T14:48:04.685Z,29.40
2018-08-16T14:50:33.109Z,29.50
2018-08-16T14:53:01.537Z,29.60
2018-08-16T14:55:29.961Z,29.30
2018-08-16T14:57:58.396Z,28.80
2018-08-16T15:00:26.981Z,28.80
2018-08-16T15:02:55.522Z,29.40
2018-08-16T15:05:23.965Z,29.10
2018-08-16T15:07:52.380Z,28.60
2018-08-16T15:10:20.989Z,28.70
2018-08-16T15:12:49.468Z,29.20
2018-08-16T15:15:17.937Z,29.60
2018-08-16T15:17:46.365Z,29.40
2018-08-16T15:20:14.832Z,29.80
2018-08-16T15:22:43.616Z,29.40
2018-08-16T15:25:12.012Z,29.60
2018-08-16T15:27:40.470Z,29.00
2018-08-16T15:30:09.556Z,28.60
2018-08-16T15:32:38.012Z,28.50
2018-08-16T15:35:07.107Z,28.20
2018-08-16T15:37:35.689Z,28.60
2018-08-16T15:40:04.185Z,28.90
2018-08-16T15:42:32.618Z,29.30
2018-08-16T15:45:01.101Z,29.20
2018-08-16T15:47:29.628Z,28.80
2018-08-16T15:49:58.249Z,28.60
2018-08-16T15:52:26.667Z,28.00
2018-08-16T15:54:55.116Z,28.30
2018-08-16T15:57:23.548Z,28.10
2018-08-16T15:59:52.010Z,28.20
2018-08-16T16:02:20.457Z,27.90
2018-08-16T16:04:48.905Z,27.80
2018-08-16T16:07:17.383Z,28.10
2018-08-16T16:09:45.829Z,28.20
2018-08-16T16:12:14.333Z,27.80
2018-08-16T16:14:42.853Z,28.40
2018-08-16T16:17:11.346Z,28.20
2018-08-16T16:19:40.434Z,28.00
2018-08-16T16:22:08.916Z,28.10
2018-08-16T16:24:37.360Z,28.10
2018-08-16T16:27:05.852Z,28.00
2018-08-16T16:29:34.296Z,27.60
2018-08-16T16:32:02.735Z,27.70
2018-08-16T16:34:31.220Z,27.70
2018-08-16T16:36:59.702Z,27.60
2018-08-16T16:39:28.151Z,27.70
2018-08-16T16:41:56.624Z,27.30
2018-08-16T16:44:25.092Z,27.50
2018-08-16T16:46:53.543Z,27.70
2018-08-16T16:49:23.168Z,27.30
2018-08-16T16:51:52.960Z,26.90
2018-08-16T16:54:21.425Z,27.00
2018-08-16T16:56:50.249Z,27.00
2018-08-16T16:59:18.757Z,27.20
2018-08-16T17:01:47.225Z,27.20
2018-08-16T17:04:16.058Z,27.00
2018-08-16T17:06:44.470Z,27.10
2018-08-16T17:09:13.140Z,26.80
2018-08-16T17:11:42.332Z,26.90
2018-08-16T17:14:11.044Z,26.70
2018-08-16T17:16:39.517Z,26.70
2018-08-16T17:19:08.082Z,26.80
2018-08-16T17:21:36.513Z,26.50
2018-08-16T17:24:04.984Z,26.30
2018-08-16T17:26:33.491Z,26.20
2018-08-16T17:29:01.864Z,26.10
2018-08-16T17:31:30.350Z,26.10
2018-08-16T17:33:58.792Z,26.10
2018-08-16T17:36:27.232Z,26.10
2018-08-16T17:38:55.691Z,26.00
2018-08-16T17:41:24.160Z,25.90
2018-08-16T17:43:52.624Z,25.90
2018-08-16T17:46:21.150Z,25.80
2018-08-16T17:48:54.367Z,25.70
2018-08-16T17:51:23.343Z,25.60
2018-08-16T17:53:52.164Z,25.70
2018-08-16T17:56:21.325Z,25.50
2018-08-16T17:58:49.839Z,25.50
2018-08-16T18:01:18.377Z,25.30
2018-08-16T18:03:48.085Z,25.30
2018-08-16T18:06:16.530Z,25.30
2018-08-16T18:08:45.017Z,25.30
2018-08-16T18:11:14.117Z,25.20
2018-08-16T18:13:42.595Z,25.10
2018-08-16T18:16:11.064Z,25.00
2018-08-16T18:18:39.535Z,24.90
2018-08-16T18:21:07.992Z,24.90
2018-08-16T18:23:36.464Z,24.80
2018-08-16T18:26:04.937Z,24.80
2018-08-16T18:28:33.368Z,24.80
2018-08-16T18:31:01.812Z,24.70
2018-08-16T18:33:30.262Z,24.60
2018-08-16T18:35:58.727Z,24.50
2018-08-16T18:38:27.157Z,24.50
2018-08-16T18:40:55.616Z,24.40
2018-08-16T18:43:24.053Z,24.40
2018-08-16T18:45:52.527Z,24.30
2018-08-16T18:48:20.960Z,24.30
2018-08-16T18:50:49.400Z,24.20
2018-08-16T18:53:17.910Z,24.10
2018-08-16T18:55:46.332Z,24.00
2018-08-16T18:58:14.801Z,24.00
2018-08-16T19:00:43.241Z,23.90
2018-08-16T19:03:11.700Z,23.90
2018-08-16T19:05:40.314Z,23.80
2018-08-16T19:08:08.616Z,23.70
2018-08-16T19:10:37.084Z,23.60
2018-08-16T19:13:05.594Z,23.60
2018-08-16T19:15:34.044Z,23.50
2018-08-16T19:18:02.541Z,23.40
2018-08-16T19:20:31.028Z,23.40
2018-08-16T19:22:59.502Z,23.40
2018-08-16T19:25:28.553Z,23.30
2018-08-16T19:27:57.076Z,23.30
2018-08-16T19:30:25.541Z,23.20
2018-08-16T19:32:54.077Z,23.20
2018-08-16T19:35:22.519Z,23.10
2018-08-16T19:37:51.008Z,23.10
2018-08-16T19:40:19.478Z,23.00
2018-08-16T19:42:47.914Z,23.00
2018-08-16T19:45:16.368Z,22.90
2018-08-16T19:47:44.881Z,22.90
2018-08-16T19:50:17.767Z,22.80
2018-08-16T19:52:46.277Z,22.80
2018-08-16T19:55:14.753Z,22.70
2018-08-16T19:57:43.225Z,22.60
2018-08-16T20:00:11.706Z,22.60
2018-08-16T20:02:40.197Z,22.50
2018-08-16T20:05:08.658Z,22.40
2018-08-16T20:07:37.118Z,22.30
2018-08-16T20:10:07.458Z,22.30
2018-08-16T20:12:35.912Z,22.30
2018-08-16T20:15:05.092Z,22.30
2018-08-16T20:17:33.531Z,22.20
2018-08-16T20:20:02.003Z,22.20
2018-08-16T20:22:30.448Z,22.20
2018-08-16T20:24:58.980Z,22.10
2018-08-16T20:27:27.387Z,22.10
2018-08-16T20:29:55.837Z,22.00
2018-08-16T20:32:25.219Z,22.00
2018-08-16T20:34:53.668Z,22.00
2018-08-16T20:37:22.149Z,21.90
2018-08-16T20:39:50.637Z,21.90
2018-08-16T20:42:19.084Z,21.90
2018-08-16T20:44:47.562Z,21.80
2018-08-16T20:47:16.011Z,21.70
2018-08-16T20:49:44.468Z,21.70
2018-08-16T20:52:12.921Z,21.70
2018-08-16T20:54:41.392Z,21.70
2018-08-16T20:57:09.862Z,21.60
2018-08-16T20:59:38.339Z,21.50
2018-08-16T21:02:06.798Z,21.50
2018-08-16T21:04:35.273Z,21.40
2018-08-16T21:07:03.961Z,21.40
2018-08-16T21:09:32.397Z,21.30
2018-08-16T21:12:00.877Z,21.30
2018-08-16T21:14:29.345Z,21.30
2018-08-16T21:16:57.835Z,21.30
2018-08-16T21:19:26.435Z,21.20
2018-08-16T21:21:54.894Z,21.10
2018-08-16T21:24:23.369Z,21.00
2018-08-16T21:26:51.872Z,21.00
2018-08-16T21:29:20.348Z,21.00
2018-08-16T21:31:48.876Z,21.00
2018-08-16T21:34:17.488Z,20.90
2018-08-16T21:36:45.980Z,20.90
2018-08-16T21:39:14.446Z,20.80
2018-08-16T21:41:42.924Z,20.80
2018-08-16T21:44:11.912Z,20.70
2018-08-16T21:46:40.384Z,20.70
2018-08-16T21:49:08.972Z,20.60
2018-08-16T21:51:37.471Z,20.60
2018-08-16T21:54:06.111Z,20.50
2018-08-16T21:56:34.573Z,20.50
2018-08-16T21:59:03.052Z,20.40
2018-08-16T22:01:31.526Z,20.30
2018-08-16T22:04:00.018Z,20.30
2018-08-16T22:06:39.826Z,20.30
2018-08-16T22:09:08.395Z,20.20
2018-08-16T22:11:36.818Z,20.20
2018-08-16T22:14:05.356Z,20.10
2018-08-16T22:16:33.805Z,20.20
2018-08-16T22:19:02.268Z,20.10
2018-08-16T22:21:30.776Z,20.10
2018-08-16T22:23:59.257Z,20.00
2018-08-16T22:26:29.309Z,20.00
2018-08-16T22:28:58.426Z,20.00
2018-08-16T22:31:27.401Z,19.90
2018-08-16T22:33:55.911Z,19.90
2018-08-16T22:36:24.379Z,19.80
2018-08-16T22:38:52.841Z,19.70
2018-08-16T22:41:21.274Z,19.70
2018-08-16T22:43:49.716Z,19.60
2018-08-16T22:46:18.257Z,19.50
2018-08-16T22:48:46.724Z,19.50
2018-08-16T22:51:15.181Z,19.40
2018-08-16T22:53:43.666Z,19.30
2018-08-16T22:56:12.105Z,19.30
2018-08-16T22:58:40.597Z,19.20
2018-08-16T23:01:09.111Z,19.20
2018-08-16T23:03:37.566Z,19.30
2018-08-16T23:06:06.056Z,19.30
2018-08-16T23:08:34.544Z,19.40
2018-08-16T23:11:02.996Z,19.30
2018-08-16T23:13:31.464Z,19.30
2018-08-16T23:15:59.952Z,19.40
2018-08-16T23:18:28.411Z,19.40
2018-08-16T23:20:56.884Z,19.30
2018-08-16T23:23:25.330Z,19.20
2018-08-16T23:25:54.117Z,19.10
2018-08-16T23:28:22.544Z,19.10
2018-08-16T23:30:51.000Z,19.00
2018-08-16T23:33:19.480Z,18.90
2018-08-16T23:35:48.029Z,18.90
2018-08-16T23:38:16.505Z,19.00
2018-08-16T23:40:45.016Z,18.90
2018-08-16T23:43:13.480Z,19.00
2018-08-16T23:45:41.934Z,19.00
2018-08-16T23:48:21.880Z,18.90
2018-08-16T23:50:50.332Z,18.80
2018-08-16T23:53:18.807Z,18.80
2018-08-16T23:55:47.246Z,18.80
2018-08-16T23:58:15.708Z,18.80
